createdAt,value
2019-01-24T00:01:08.525Z,46.97
2019-01-24T00:03:38.098Z,47.63
2019-01-24T00:06:07.665Z,46.93
2019-01-24T00:08:37.310Z,49.63
2019-01-24T00:11:06.894Z,47.20
2019-01-24T00:13:36.445Z,53.53
2019-01-24T00:16:07.879Z,45.37
2019-01-24T00:18:38.392Z,46.30
2019-01-24T00:21:08.192Z,50.37
2019-01-24T00:23:37.737Z,46.80
2019-01-24T00:26:07.360Z,45.17
2019-01-24T00:28:37.677Z,49.17
2019-01-24T00:31:07.213Z,47.67
2019-01-24T00:33:36.777Z,45.40
2019-01-24T00:36:06.655Z,47.83
2019-01-24T00:38:36.214Z,47.53
2019-01-24T00:41:05.883Z,47.50
2019-01-24T00:43:35.439Z,52.93
2019-01-24T00:46:05.050Z,51.83
2019-01-24T00:48:34.612Z,49.67
2019-01-24T00:51:04.177Z,51.73
2019-01-24T00:53:33.736Z,46.00
2019-01-24T00:56:03.288Z,45.07
2019-01-24T00:58:32.846Z,44.47
2019-01-24T01:01:02.391Z,54.53
2019-01-24T01:03:31.953Z,51.67
2019-01-24T01:06:02.638Z,51.77
2019-01-24T01:08:32.187Z,49.30
2019-01-24T01:11:01.873Z,50.43
2019-01-24T01:13:31.408Z,47.33
2019-01-24T01:16:00.955Z,49.33
2019-01-24T01:18:30.494Z,49.53
2019-01-24T01:21:00.189Z,52.47
2019-01-24T01:23:29.819Z,46.80
2019-01-24T01:25:59.417Z,47.10
2019-01-24T01:28:28.973Z,45.97
2019-01-24T01:30:58.534Z,49.23
2019-01-24T01:33:28.160Z,46.87
2019-01-24T01:35:57.997Z,47.80
2019-01-24T01:38:27.536Z,48.23
2019-01-24T01:40:57.089Z,48.50
2019-01-24T01:43:26.632Z,49.47
2019-01-24T01:45:56.223Z,46.57
2019-01-24T01:48:25.779Z,45.07
2019-01-24T01:50:55.341Z,47.53
2019-01-24T01:56:01.150Z,48.33
2019-01-24T01:58:30.722Z,48.13
2019-01-24T02:01:00.237Z,50.80
2019-01-24T02:03:29.786Z,46.33
2019-01-24T02:05:59.343Z,47.50
2019-01-24T02:08:28.959Z,47.07
2019-01-24T02:10:58.512Z,48.10
2019-01-24T02:13:28.303Z,53.30
2019-01-24T02:15:58.776Z,51.93
2019-01-24T02:18:28.386Z,50.90
2019-01-24T02:20:57.975Z,50.00
2019-01-24T02:23:27.519Z,53.03
2019-01-24T02:25:57.064Z,52.97
2019-01-24T02:28:26.634Z,49.87
2019-01-24T02:30:56.193Z,50.77
2019-01-24T02:33:25.766Z,50.93
2019-01-24T02:35:55.570Z,51.40
2019-01-24T02:38:26.573Z,49.23
2019-01-24T02:40:56.137Z,51.67
2019-01-24T02:43:25.680Z,51.03
2019-01-24T02:45:55.246Z,50.67
2019-01-24T02:48:24.792Z,50.90
2019-01-24T02:50:54.362Z,51.63
2019-01-24T02:53:23.927Z,55.33
2019-01-24T02:55:53.474Z,46.83
2019-01-24T02:58:23.041Z,49.67
2019-01-24T03:00:52.578Z,49.87
2019-01-24T03:03:22.144Z,50.57
2019-01-24T03:05:51.719Z,49.13
2019-01-24T03:08:21.331Z,52.20
2019-01-24T03:10:50.871Z,52.40
2019-01-24T03:13:20.457Z,52.00
2019-01-24T03:15:50.067Z,50.77
2019-01-24T03:18:19.610Z,50.37
2019-01-24T03:20:49.153Z,52.57
2019-01-24T03:23:18.722Z,48.27
2019-01-24T03:25:48.293Z,54.27
2019-01-24T03:28:17.847Z,54.83
2019-01-24T03:30:47.401Z,53.80
2019-01-24T03:33:16.944Z,49.30
2019-01-24T03:35:46.567Z,50.10
2019-01-24T03:38:16.101Z,58.30
2019-01-24T03:40:46.243Z,50.77
2019-01-24T03:43:15.785Z,52.27
2019-01-24T03:45:45.382Z,52.27
2019-01-24T03:48:14.932Z,54.57
2019-01-24T03:50:44.494Z,53.90
2019-01-24T03:53:14.049Z,51.57
2019-01-24T03:55:43.615Z,50.07
2019-01-24T03:58:13.223Z,55.10
2019-01-24T04:00:42.798Z,48.87
2019-01-24T04:03:12.371Z,54.20
2019-01-24T04:05:41.888Z,52.90
2019-01-24T04:08:11.456Z,54.73
2019-01-24T04:10:41.029Z,52.57
2019-01-24T04:13:10.592Z,50.93
2019-01-24T04:15:40.215Z,53.83
2019-01-24T04:18:09.946Z,56.23
2019-01-24T04:20:39.495Z,48.17
2019-01-24T04:23:11.552Z,55.93
2019-01-24T04:25:41.090Z,49.23
2019-01-24T04:28:10.640Z,50.57
2019-01-24T04:30:40.201Z,53.57
2019-01-24T04:33:09.757Z,53.67
2019-01-24T04:35:39.317Z,48.97
2019-01-24T04:38:08.897Z,52.43
2019-01-24T04:40:39.993Z,52.87
2019-01-24T04:43:09.494Z,55.23
2019-01-24T04:45:39.045Z,53.80
2019-01-24T04:48:08.625Z,56.60
2019-01-24T04:50:38.159Z,53.50
2019-01-24T04:53:09.413Z,58.17
2019-01-24T04:55:38.954Z,55.77
2019-01-24T04:58:08.529Z,56.60
2019-01-24T05:00:39.913Z,55.03
2019-01-24T05:03:09.477Z,54.37
2019-01-24T05:05:39.029Z,56.83
2019-01-24T05:08:08.565Z,53.67
2019-01-24T05:10:38.136Z,59.43
2019-01-24T05:13:10.569Z,54.10
2019-01-24T05:15:40.126Z,57.43
2019-01-24T05:18:09.687Z,53.73
2019-01-24T05:20:40.280Z,59.10
2019-01-24T05:23:09.876Z,55.93
2019-01-24T05:25:39.457Z,56.13
2019-01-24T05:28:09.039Z,55.10
2019-01-24T05:30:38.581Z,52.47
2019-01-24T05:33:08.139Z,54.13
2019-01-24T05:35:37.676Z,54.10
2019-01-24T05:38:07.308Z,57.10
2019-01-24T05:40:36.863Z,55.17
2019-01-24T05:43:06.477Z,55.67
2019-01-24T05:45:36.028Z,54.43
2019-01-24T05:48:05.681Z,54.67
2019-01-24T05:50:35.239Z,59.47
2019-01-24T05:53:04.799Z,57.87
2019-01-24T05:55:34.394Z,54.67
2019-01-24T05:58:03.951Z,55.27
2019-01-24T06:00:35.178Z,60.47
2019-01-24T06:03:04.762Z,57.17
2019-01-24T06:05:34.324Z,63.07
2019-01-24T06:08:03.870Z,57.60
2019-01-24T06:10:33.403Z,56.13
2019-01-24T06:13:02.967Z,55.63
2019-01-24T06:15:32.525Z,57.80
2019-01-24T06:18:02.483Z,62.60
2019-01-24T06:20:32.982Z,56.43
2019-01-24T06:23:02.541Z,59.70
2019-01-24T06:25:32.101Z,56.53
2019-01-24T06:28:02.782Z,58.10
2019-01-24T06:30:32.397Z,54.80
2019-01-24T06:33:02.437Z,59.33
2019-01-24T06:35:31.976Z,57.37
2019-01-24T06:38:01.530Z,55.57
2019-01-24T06:40:31.093Z,58.10
2019-01-24T06:43:00.629Z,57.50
2019-01-24T06:45:30.196Z,57.90
2019-01-24T06:47:59.757Z,55.83
2019-01-24T06:50:29.320Z,56.70
2019-01-24T06:52:58.835Z,58.10
2019-01-24T06:55:29.512Z,57.93
2019-01-24T06:57:59.049Z,59.50
2019-01-24T07:00:28.591Z,60.33
2019-01-24T07:02:58.264Z,61.50
2019-01-24T07:05:28.667Z,60.47
2019-01-24T07:07:58.208Z,64.80
2019-01-24T07:10:27.767Z,59.77
2019-01-24T07:12:57.309Z,62.53
2019-01-24T07:15:26.937Z,59.10
2019-01-24T07:17:56.494Z,60.57
2019-01-24T07:20:27.944Z,64.77
2019-01-24T07:22:57.457Z,62.83
2019-01-24T07:25:28.726Z,63.23
2019-01-24T07:27:58.275Z,56.43
2019-01-24T07:30:27.834Z,61.57
2019-01-24T07:32:57.376Z,51.47
2019-01-24T07:35:26.928Z,61.30
2019-01-24T07:37:56.495Z,60.00
2019-01-24T07:40:26.043Z,58.07
2019-01-24T07:42:55.595Z,59.63
2019-01-24T07:45:35.480Z,61.80
2019-01-24T07:48:06.071Z,59.97
2019-01-24T07:50:35.834Z,55.63
2019-01-24T07:53:07.726Z,60.63
2019-01-24T07:55:39.965Z,65.00
2019-01-24T07:58:09.671Z,62.77
2019-01-24T08:00:41.066Z,58.47
2019-01-24T08:03:10.671Z,62.00
2019-01-24T08:05:40.219Z,58.70
2019-01-24T08:08:09.784Z,62.30
2019-01-24T08:10:39.338Z,62.00
2019-01-24T08:13:10.590Z,53.87
2019-01-24T08:15:40.200Z,62.67
2019-01-24T08:18:09.775Z,59.07
2019-01-24T08:20:39.341Z,57.37
2019-01-24T08:23:08.917Z,60.20
2019-01-24T08:25:38.489Z,60.70
2019-01-24T08:28:08.053Z,61.87
2019-01-24T08:30:37.666Z,66.07
2019-01-24T08:33:07.314Z,58.30
2019-01-24T08:35:36.933Z,61.77
2019-01-24T08:38:07.636Z,59.00
2019-01-24T08:40:37.189Z,65.90
2019-01-24T08:43:08.385Z,60.43
2019-01-24T08:45:37.989Z,63.43
2019-01-24T08:48:07.535Z,64.03
2019-01-24T08:50:37.135Z,60.33
2019-01-24T08:53:06.656Z,62.67
2019-01-24T08:55:38.882Z,60.83
2019-01-24T08:58:08.619Z,62.60
2019-01-24T09:00:38.180Z,57.93
2019-01-24T09:03:09.947Z,58.70
2019-01-24T09:05:39.529Z,61.03
2019-01-24T09:08:09.209Z,59.47
2019-01-24T09:10:39.407Z,68.37
2019-01-24T09:13:10.605Z,59.43
2019-01-24T09:15:40.208Z,68.17
2019-01-24T09:18:09.977Z,62.23
2019-01-24T09:20:39.503Z,58.93
2019-01-24T09:23:10.858Z,59.70
2019-01-24T09:25:40.472Z,64.33
2019-01-24T09:28:14.926Z,67.87
2019-01-24T09:30:43.746Z,69.50
2019-01-24T09:33:13.824Z,62.70
2019-01-24T09:35:43.432Z,62.17
2019-01-24T09:38:12.981Z,61.90
2019-01-24T09:40:46.599Z,59.77
2019-01-24T09:43:16.140Z,59.53
2019-01-24T09:45:45.711Z,63.63
2019-01-24T09:48:15.389Z,61.83
2019-01-24T09:50:45.024Z,59.83
2019-01-24T09:53:14.703Z,62.73
2019-01-24T09:55:44.256Z,60.17
2019-01-24T09:58:13.801Z,61.43
2019-01-24T10:00:46.406Z,63.10
2019-01-24T10:03:16.214Z,60.00
2019-01-24T10:05:48.377Z,62.97
2019-01-24T10:08:17.871Z,61.63
2019-01-24T10:10:47.997Z,69.07
2019-01-24T10:13:17.627Z,66.90
2019-01-24T10:15:47.285Z,62.23
2019-01-24T10:18:21.642Z,66.13
2019-01-24T10:20:48.646Z,62.30
2019-01-24T10:23:18.190Z,62.77
2019-01-24T10:25:47.847Z,62.53
2019-01-24T10:28:17.402Z,64.17
2019-01-24T10:30:46.979Z,62.57
2019-01-24T10:33:16.543Z,70.27
2019-01-24T10:35:46.098Z,67.83
2019-01-24T10:38:15.646Z,64.73
2019-01-24T10:40:46.532Z,65.43
2019-01-24T10:43:16.109Z,63.00
2019-01-24T10:45:47.130Z,64.47
2019-01-24T10:48:16.702Z,64.53
2019-01-24T10:50:46.282Z,65.03
2019-01-24T10:53:15.857Z,76.33
2019-01-24T10:55:45.523Z,65.27
2019-01-24T10:58:15.117Z,65.33
2019-01-24T11:00:46.238Z,65.57
2019-01-24T11:03:15.868Z,68.07
2019-01-24T11:05:45.505Z,67.63
2019-01-24T11:08:15.127Z,65.90
2019-01-24T11:10:44.744Z,67.43
2019-01-24T11:13:14.638Z,68.80
2019-01-24T11:15:44.217Z,74.50
2019-01-24T11:18:13.778Z,68.60
2019-01-24T11:20:43.816Z,69.50
2019-01-24T11:23:13.437Z,75.70
2019-01-24T11:25:43.197Z,68.23
2019-01-24T11:28:12.746Z,71.50
2019-01-24T11:30:42.303Z,64.73
2019-01-24T11:33:11.916Z,63.80
2019-01-24T11:35:41.620Z,66.50
2019-01-24T11:38:12.937Z,70.33
2019-01-24T11:40:44.183Z,74.27
2019-01-24T11:43:13.831Z,67.87
2019-01-24T11:45:43.452Z,72.53
2019-01-24T11:48:13.078Z,67.80
2019-01-24T11:50:42.739Z,66.30
2019-01-24T11:53:12.299Z,71.90
2019-01-24T11:55:41.871Z,70.40
2019-01-24T11:58:11.400Z,69.20
2019-01-24T12:00:42.759Z,67.90
2019-01-24T12:03:12.332Z,67.57
2019-01-24T12:05:42.291Z,67.73
2019-01-24T12:08:11.826Z,64.17
2019-01-24T12:10:41.445Z,63.03
2019-01-24T12:13:10.979Z,70.17
2019-01-24T12:15:40.558Z,66.13
2019-01-24T12:18:10.095Z,74.90
2019-01-24T12:20:39.674Z,61.47
2019-01-24T12:23:10.175Z,67.27
2019-01-24T12:25:39.785Z,67.43
2019-01-24T12:28:09.405Z,68.07
2019-01-24T12:30:38.961Z,65.37
2019-01-24T12:33:11.407Z,65.60
2019-01-24T12:35:40.983Z,66.17
2019-01-24T12:38:10.786Z,78.00
2019-01-24T12:40:40.334Z,68.17
2019-01-24T12:43:09.942Z,67.97
2019-01-24T12:45:40.532Z,71.60
2019-01-24T12:48:13.596Z,70.93
2019-01-24T12:50:42.881Z,71.13
2019-01-24T12:53:12.416Z,66.37
2019-01-24T12:55:41.980Z,69.13
2019-01-24T12:58:11.521Z,72.87
2019-01-24T13:00:41.189Z,67.50
2019-01-24T13:03:10.809Z,68.57
2019-01-24T13:05:40.365Z,70.70
2019-01-24T13:08:10.079Z,72.53
2019-01-24T13:10:39.623Z,76.57
2019-01-24T13:13:09.346Z,69.17
2019-01-24T13:15:39.131Z,67.07
2019-01-24T13:18:08.765Z,70.67
2019-01-24T13:20:38.382Z,69.90
2019-01-24T13:23:10.532Z,73.77
2019-01-24T13:25:39.577Z,71.13
2019-01-24T13:28:09.391Z,73.60
2019-01-24T13:30:39.215Z,66.37
2019-01-24T13:33:08.818Z,66.57
2019-01-24T13:35:38.371Z,67.37
2019-01-24T13:38:08.155Z,71.30
2019-01-24T13:40:37.811Z,69.17
2019-01-24T13:43:07.437Z,65.83
2019-01-24T13:45:37.726Z,73.10
2019-01-24T13:48:07.670Z,67.43
2019-01-24T13:50:37.227Z,68.13
2019-01-24T13:53:06.921Z,64.83
2019-01-24T13:55:36.461Z,71.03
2019-01-24T13:58:06.190Z,68.47
2019-01-24T14:00:37.009Z,64.80
2019-01-24T14:03:22.350Z,61.13
2019-01-24T14:05:54.744Z,65.80
2019-01-24T14:08:23.583Z,70.57
2019-01-24T14:10:53.172Z,66.97
2019-01-24T14:13:22.759Z,63.93
2019-01-24T14:15:52.340Z,65.83
2019-01-24T14:18:22.210Z,69.37
2019-01-24T14:20:56.253Z,71.73
2019-01-24T14:23:25.834Z,68.90
2019-01-24T14:25:55.385Z,65.97
2019-01-24T14:28:24.927Z,72.00
2019-01-24T14:30:54.488Z,69.77
2019-01-24T14:33:24.048Z,68.70
2019-01-24T14:35:53.698Z,74.00
2019-01-24T14:38:23.685Z,63.20
2019-01-24T14:40:53.287Z,63.93
2019-01-24T14:43:22.837Z,67.57
2019-01-24T14:45:52.384Z,66.80
2019-01-24T14:48:21.955Z,64.93
2019-01-24T14:50:51.520Z,59.60
2019-01-24T14:53:21.063Z,65.87
2019-01-24T14:55:50.619Z,65.17
2019-01-24T14:58:21.793Z,61.90
2019-01-24T15:00:59.399Z,63.90
2019-01-24T15:03:28.961Z,64.40
2019-01-24T15:06:02.162Z,63.90
2019-01-24T15:08:31.713Z,64.77
2019-01-24T15:11:02.021Z,65.57
2019-01-24T15:13:31.604Z,68.40
2019-01-24T15:16:02.366Z,69.60
2019-01-24T15:18:31.904Z,63.17
2019-01-24T15:21:01.468Z,62.10
2019-01-24T15:23:31.043Z,65.67
2019-01-24T15:26:00.595Z,68.03
2019-01-24T15:28:32.001Z,63.10
2019-01-24T15:31:01.595Z,63.47
2019-01-24T15:33:31.601Z,64.07
2019-01-24T15:36:02.144Z,62.57
2019-01-24T15:38:31.715Z,59.90
2019-01-24T15:41:01.321Z,63.93
2019-01-24T15:43:31.169Z,61.40
2019-01-24T15:46:00.708Z,61.60
2019-01-24T15:48:30.371Z,65.93
2019-01-24T15:51:01.216Z,65.50
2019-01-24T15:53:30.885Z,69.20
2019-01-24T15:56:00.474Z,65.20
2019-01-24T15:58:30.661Z,69.63
2019-01-24T16:01:00.274Z,70.80
2019-01-24T16:03:29.806Z,72.40
2019-01-24T16:05:59.415Z,74.27
2019-01-24T16:08:28.973Z,70.27
2019-01-24T16:11:00.376Z,77.47
2019-01-24T16:13:29.949Z,66.57
2019-01-24T16:15:59.485Z,73.17
2019-01-24T16:18:29.021Z,69.13
2019-01-24T16:20:58.584Z,68.90
2019-01-24T16:23:28.145Z,67.03
2019-01-24T16:25:57.710Z,66.10
2019-01-24T16:28:27.248Z,65.70
2019-01-24T16:30:56.993Z,66.43
2019-01-24T16:33:26.537Z,62.37
2019-01-24T16:35:56.074Z,66.20
2019-01-24T16:38:25.640Z,62.10
2019-01-24T16:40:55.250Z,61.17
2019-01-24T16:43:25.119Z,58.93
2019-01-24T16:45:54.681Z,60.00
2019-01-24T16:48:24.226Z,59.37
2019-01-24T16:50:53.822Z,72.10
2019-01-24T16:53:24.021Z,85.63
2019-01-24T16:55:54.923Z,72.67
2019-01-24T16:58:24.769Z,77.57
2019-01-24T17:00:54.629Z,77.80
2019-01-24T17:03:24.240Z,82.30
2019-01-24T17:05:53.815Z,78.83
2019-01-24T17:08:23.388Z,82.57
2019-01-24T17:10:54.658Z,81.57
2019-01-24T17:13:24.214Z,78.47
2019-01-24T17:15:53.902Z,84.33
2019-01-24T17:18:23.399Z,82.97
2019-01-24T17:20:54.474Z,79.73
2019-01-24T17:23:24.019Z,89.43
2019-01-24T17:25:53.834Z,83.73
2019-01-24T17:28:23.375Z,84.90
2019-01-24T17:30:52.986Z,79.10
2019-01-24T17:33:23.193Z,81.17
2019-01-24T17:35:52.730Z,81.13
2019-01-24T17:38:24.292Z,87.80
2019-01-24T17:40:53.869Z,83.03
2019-01-24T17:43:24.824Z,84.43
2019-01-24T17:45:56.276Z,76.67
2019-01-24T17:48:25.974Z,82.87
2019-01-24T17:50:55.481Z,80.27
2019-01-24T17:53:25.019Z,77.77
2019-01-24T17:55:54.603Z,79.83
2019-01-24T17:58:24.158Z,80.37
2019-01-24T18:00:55.149Z,89.10
2019-01-24T18:03:24.810Z,75.87
2019-01-24T18:05:54.367Z,85.33
2019-01-24T18:08:30.999Z,86.23
2019-01-24T18:10:55.273Z,79.83
2019-01-24T18:16:01.185Z,82.20
2019-01-24T18:18:30.759Z,79.00
2019-01-24T18:21:00.349Z,76.90
2019-01-24T18:23:30.184Z,75.50
2019-01-24T18:25:59.725Z,76.77
2019-01-24T18:28:29.266Z,80.63
2019-01-24T18:30:58.829Z,77.00
2019-01-24T18:33:28.384Z,75.00
2019-01-24T18:35:57.954Z,77.17
2019-01-24T18:38:27.506Z,80.83
2019-01-24T18:40:57.073Z,75.27
2019-01-24T18:43:26.848Z,70.47
2019-01-24T18:45:57.815Z,73.73
2019-01-24T18:48:27.413Z,75.47
2019-01-24T18:50:56.938Z,75.50
2019-01-24T18:53:27.730Z,73.90
2019-01-24T18:55:57.252Z,75.80
2019-01-24T18:58:28.612Z,72.03
2019-01-24T19:00:58.184Z,77.60
2019-01-24T19:03:27.708Z,67.83
2019-01-24T19:05:57.269Z,72.50
2019-01-24T19:08:26.835Z,67.30
2019-01-24T19:10:56.381Z,70.87
2019-01-24T19:13:25.943Z,73.60
2019-01-24T19:15:55.594Z,69.57
2019-01-24T19:18:26.025Z,71.23
2019-01-24T19:20:55.583Z,66.93
2019-01-24T19:23:25.594Z,68.73
2019-01-24T19:25:55.300Z,69.00
2019-01-24T19:28:24.931Z,72.50
2019-01-24T19:30:54.475Z,73.53
2019-01-24T19:33:24.260Z,70.27
2019-01-24T19:36:00.105Z,68.70
2019-01-24T19:38:25.104Z,72.20
2019-01-24T19:40:54.643Z,74.53
2019-01-24T19:43:24.214Z,69.80
2019-01-24T19:45:53.748Z,78.23
2019-01-24T19:48:23.330Z,74.33
2019-01-24T19:50:53.120Z,73.97
2019-01-24T19:53:22.714Z,73.00
2019-01-24T19:55:52.498Z,72.70
2019-01-24T19:58:22.067Z,71.83
2019-01-24T20:00:54.969Z,70.83
2019-01-24T20:03:24.541Z,67.77
2019-01-24T20:05:54.131Z,67.07
2019-01-24T20:08:23.730Z,63.47
2019-01-24T20:10:56.807Z,64.63
2019-01-24T20:13:26.479Z,60.20
2019-01-24T20:15:56.251Z,66.23
2019-01-24T20:18:25.907Z,65.17
2019-01-24T20:20:55.513Z,69.03
2019-01-24T20:23:25.348Z,67.27
2019-01-24T20:25:59.152Z,62.20
2019-01-24T20:28:28.726Z,62.33
2019-01-24T20:30:58.318Z,60.17
2019-01-24T20:33:28.063Z,63.27
2019-01-24T20:36:00.523Z,64.73
2019-01-24T20:38:30.044Z,67.73
2019-01-24T20:41:04.334Z,63.43
2019-01-24T20:43:40.037Z,68.83
2019-01-24T20:46:09.686Z,67.10
2019-01-24T20:48:39.522Z,71.03
2019-01-24T20:51:09.089Z,70.13
2019-01-24T20:53:38.758Z,71.03
2019-01-24T20:56:09.662Z,61.00
2019-01-24T20:58:39.245Z,62.10
2019-01-24T21:01:08.844Z,61.50
2019-01-24T21:03:40.262Z,59.73
2019-01-24T21:06:12.503Z,67.30
2019-01-24T21:08:42.450Z,67.87
2019-01-24T21:11:15.372Z,65.10
2019-01-24T21:13:45.055Z,67.00
2019-01-24T21:16:14.631Z,67.20
2019-01-24T21:18:44.209Z,68.07
2019-01-24T21:21:13.801Z,70.47
2019-01-24T21:23:43.377Z,63.23
2019-01-24T21:26:13.220Z,64.33
2019-01-24T21:28:42.888Z,69.00
2019-01-24T21:31:12.491Z,64.03
2019-01-24T21:33:44.811Z,66.67
2019-01-24T21:36:14.431Z,63.17
2019-01-24T21:38:44.038Z,56.80
2019-01-24T21:41:20.957Z,56.20
2019-01-24T21:43:53.650Z,59.10
2019-01-24T21:46:22.976Z,64.47
2019-01-24T21:48:52.922Z,63.73
2019-01-24T21:51:24.174Z,56.57
2019-01-24T21:53:59.764Z,58.33
2019-01-24T21:56:29.400Z,65.93
2019-01-24T21:58:59.000Z,64.17
2019-01-24T22:01:29.209Z,63.77
2019-01-24T22:03:58.856Z,58.37
2019-01-24T22:06:28.459Z,62.33
2019-01-24T22:08:59.961Z,58.53
2019-01-24T22:11:33.392Z,56.73
2019-01-24T22:14:03.058Z,59.53
2019-01-24T22:16:32.674Z,60.00
2019-01-24T22:19:02.247Z,57.07
2019-01-24T22:21:32.888Z,55.70
2019-01-24T22:24:02.501Z,56.87
2019-01-24T22:26:32.067Z,60.10
2019-01-24T22:29:05.174Z,58.67
2019-01-24T22:31:35.042Z,54.97
2019-01-24T22:34:08.914Z,57.67
2019-01-24T22:39:14.628Z,56.23
2019-01-24T22:41:44.505Z,58.10
2019-01-24T22:44:14.299Z,55.87
2019-01-24T22:46:43.908Z,58.63
2019-01-24T22:49:13.518Z,62.33
2019-01-24T22:51:43.673Z,53.97
2019-01-24T22:54:13.236Z,58.07
2019-01-24T22:56:43.345Z,57.53
2019-01-24T22:59:13.195Z,55.63
2019-01-24T23:01:46.551Z,53.17
2019-01-24T23:04:16.242Z,51.10
2019-01-24T23:06:46.280Z,53.90
2019-01-24T23:09:15.859Z,57.13
2019-01-24T23:14:41.544Z,64.00
2019-01-24T23:17:11.179Z,52.83
2019-01-24T23:19:40.754Z,59.03
2019-01-24T23:22:10.608Z,55.20
2019-01-24T23:24:40.234Z,61.47
2019-01-24T23:27:12.160Z,62.67
2019-01-24T23:29:42.010Z,59.30
2019-01-24T23:32:13.001Z,57.67
2019-01-24T23:34:42.529Z,61.17
2019-01-24T23:37:12.082Z,59.17
2019-01-24T23:39:41.683Z,57.87
2019-01-24T23:42:11.377Z,59.27
2019-01-24T23:44:40.946Z,60.13
2019-01-24T23:47:10.605Z,54.27
2019-01-24T23:49:40.188Z,58.17
2019-01-24T23:52:10.900Z,55.27
2019-01-24T23:54:40.537Z,58.07
2019-01-24T23:57:11.814Z,57.80
2019-01-24T23:59:41.369Z,54.70
